createdAt,value
2022-12-16T00:01:09.287Z,93433.72
2022-12-16T00:03:36.875Z,93436.03
2022-12-16T00:06:04.902Z,93433.81
2022-12-16T00:08:39.269Z,93438.31
2022-12-16T00:11:07.608Z,93440.72
2022-12-16T00:13:36.493Z,93440.97
2022-12-16T00:16:12.784Z,93444.88
2022-12-16T00:18:40.076Z,93439.13
2022-12-16T00:21:07.930Z,93437.41
2022-12-16T00:23:35.651Z,93430.47
2022-12-16T00:26:02.835Z,93433.03
2022-12-16T00:28:29.385Z,93436.34
2022-12-16T00:30:56.716Z,93437.28
2022-12-16T00:33:25.483Z,93432.06
2022-12-16T00:35:53.061Z,93428.63
2022-12-16T00:38:21.044Z,93429.19
2022-12-16T00:40:47.841Z,93429.19
2022-12-16T00:43:14.525Z,93429.19
2022-12-16T00:45:41.215Z,93436.88
2022-12-16T00:48:08.258Z,93438.78
2022-12-16T00:50:36.130Z,93446.25
2022-12-16T00:53:03.317Z,93449.31
2022-12-16T00:55:30.202Z,93459.47
2022-12-16T00:57:56.764Z,93462.22
2022-12-16T01:00:23.743Z,93463.84
2022-12-16T01:02:51.625Z,93465.56
2022-12-16T01:05:26.450Z,93473.16
2022-12-16T01:07:54.574Z,93469.72
2022-12-16T01:10:21.533Z,93474.78
2022-12-16T01:12:48.171Z,93478.56
2022-12-16T01:15:15.017Z,93478.19
2022-12-16T01:17:41.866Z,93479.13
2022-12-16T01:20:09.886Z,93481.66
2022-12-16T01:22:36.809Z,93481.09
2022-12-16T01:25:03.950Z,93487.75
2022-12-16T01:27:30.539Z,93494.47
2022-12-16T01:29:57.140Z,93497.91
2022-12-16T01:32:24.150Z,93487.75
2022-12-16T01:34:55.113Z,93495.25
2022-12-16T01:37:23.550Z,93493.84
2022-12-16T01:39:50.480Z,93496.94
2022-12-16T01:42:19.816Z,93488.09
2022-12-16T01:44:49.031Z,93478.31
2022-12-16T01:47:21.975Z,93483.16
2022-12-16T01:49:58.089Z,93480.97
2022-12-16T01:52:32.910Z,93480.03
2022-12-16T01:55:07.740Z,93474.06
2022-12-16T01:57:43.128Z,93486.47
2022-12-16T02:00:10.481Z,93474.19
2022-12-16T02:02:43.866Z,93477.50
2022-12-16T02:05:23.071Z,93478.56
2022-12-16T02:07:58.377Z,93479.25
2022-12-16T02:10:38.795Z,93476.72
2022-12-16T02:13:08.275Z,93484.31
2022-12-16T02:15:41.492Z,93484.75
2022-12-16T02:18:33.364Z,93493.97
2022-12-16T02:21:02.874Z,93502.63
2022-12-16T02:23:53.810Z,93501.00
2022-12-16T02:26:43.261Z,93500.31
2022-12-16T02:29:37.654Z,93506.66
2022-12-16T02:32:10.152Z,93513.66
2022-12-16T02:34:51.883Z,93514.72
2022-12-16T02:37:48.137Z,93525.44
2022-12-16T02:40:40.824Z,93537.53
2022-12-16T02:43:15.552Z,93539.38
2022-12-16T02:45:42.899Z,93524.19
2022-12-16T02:48:09.627Z,93536.03
2022-12-16T02:50:40.759Z,93531.41
2022-12-16T02:53:09.387Z,93538.72
2022-12-16T02:55:42.934Z,93536.72
2022-12-16T02:58:34.990Z,93535.22
2022-12-16T03:01:13.599Z,93534.69
2022-12-16T03:04:05.845Z,93532.69
2022-12-16T03:06:35.523Z,93537.91
2022-12-16T03:09:06.713Z,93535.72
2022-12-16T03:11:33.654Z,93531.47
2022-12-16T03:14:02.625Z,93535.63
2022-12-16T03:16:32.414Z,93538.16
2022-12-16T03:19:06.911Z,93547.47
2022-12-16T03:21:44.969Z,93542.16
2022-12-16T03:24:13.980Z,93539.53
2022-12-16T03:27:05.303Z,93546.44
2022-12-16T03:29:56.127Z,93561.50
2022-12-16T03:32:35.126Z,93558.41
2022-12-16T03:35:33.343Z,93565.81
2022-12-16T03:38:03.954Z,93569.38
2022-12-16T03:40:33.029Z,93561.44
2022-12-16T03:43:02.185Z,93569.16
2022-12-16T03:45:36.824Z,93572.06
2022-12-16T03:48:06.114Z,93567.69
2022-12-16T03:50:34.210Z,93571.97
2022-12-16T03:53:00.784Z,93584.44
2022-12-16T03:55:28.283Z,93581.19
2022-12-16T03:57:55.537Z,93582.13
2022-12-16T04:00:22.177Z,93592.28
2022-12-16T04:02:49.313Z,93594.94
2022-12-16T04:05:16.548Z,93589.25
2022-12-16T04:07:43.163Z,93587.78
2022-12-16T04:10:10.567Z,93586.16
2022-12-16T04:12:55.733Z,93587.78
2022-12-16T04:15:41.133Z,93592.59
2022-12-16T04:18:34.032Z,93603.31
2022-12-16T04:21:19.934Z,93613.56
2022-12-16T04:24:11.373Z,93613.00
2022-12-16T04:26:56.290Z,93609.09
2022-12-16T04:29:23.525Z,93611.75
2022-12-16T04:31:52.082Z,93620.13
2022-12-16T04:34:31.338Z,93621.97
2022-12-16T04:37:21.376Z,93617.38
2022-12-16T04:40:06.799Z,93630.25
2022-12-16T04:42:52.163Z,93652.00
2022-12-16T04:45:37.488Z,93651.31
2022-12-16T04:48:22.611Z,93659.25
2022-12-16T04:51:07.821Z,93661.78
2022-12-16T04:53:52.925Z,93666.75
2022-12-16T04:56:37.820Z,93667.88
2022-12-16T04:59:23.014Z,93669.59
2022-12-16T05:02:08.101Z,93676.75
2022-12-16T05:04:53.430Z,93682.13
2022-12-16T05:07:38.960Z,93689.16
2022-12-16T05:10:26.042Z,93686.72
2022-12-16T05:13:12.722Z,93689.38
2022-12-16T05:15:58.588Z,93689.03
2022-12-16T05:18:43.758Z,93693.97
2022-12-16T05:21:28.644Z,93689.59
2022-12-16T05:24:13.650Z,93699.72
2022-12-16T05:26:58.882Z,93705.03
2022-12-16T05:29:43.814Z,93704.19
2022-12-16T05:32:29.135Z,93706.59
2022-12-16T05:35:14.057Z,93718.13
2022-12-16T05:37:59.158Z,93719.75
2022-12-16T05:40:44.296Z,93720.91
2022-12-16T05:43:29.945Z,93717.09
2022-12-16T05:46:15.522Z,93720.75
2022-12-16T05:49:00.716Z,93728.34
2022-12-16T05:51:45.594Z,93728.56
2022-12-16T05:54:30.774Z,93740.06
2022-12-16T05:57:35.774Z,93738.38
2022-12-16T06:00:21.405Z,93739.88
2022-12-16T06:03:08.589Z,93742.41
2022-12-16T06:05:53.780Z,93739.84
2022-12-16T06:08:38.644Z,93745.47
2022-12-16T06:11:23.781Z,93750.53
2022-12-16T06:14:08.765Z,93752.50
2022-12-16T06:16:53.763Z,93754.41
2022-12-16T06:19:39.029Z,93767.28
2022-12-16T06:22:24.014Z,93770.75
2022-12-16T06:25:09.391Z,93769.44
2022-12-16T06:27:54.350Z,93776.56
2022-12-16T06:30:39.306Z,93782.44
2022-12-16T06:33:24.182Z,93795.25
2022-12-16T06:36:09.151Z,93799.38
2022-12-16T06:38:54.543Z,93798.03
2022-12-16T06:41:39.699Z,93795.66
2022-12-16T06:44:24.694Z,93808.44
2022-12-16T06:47:09.764Z,93812.56
2022-12-16T06:49:55.079Z,93811.91
2022-12-16T06:52:40.296Z,93814.16
2022-12-16T06:55:25.680Z,93816.75
2022-12-16T06:58:22.895Z,93821.38
2022-12-16T07:01:08.396Z,93826.88
2022-12-16T07:03:53.834Z,93842.38
2022-12-16T07:06:39.158Z,93839.75
2022-12-16T07:09:24.393Z,93849.56
2022-12-16T07:12:09.229Z,93854.63
2022-12-16T07:14:54.273Z,93859.69
2022-12-16T07:17:39.399Z,93871.09
2022-12-16T07:20:25.392Z,93867.38
2022-12-16T07:23:16.142Z,93865.88
2022-12-16T07:26:04.457Z,93878.13
2022-12-16T07:28:49.620Z,93878.31
2022-12-16T07:31:34.840Z,93893.41
2022-12-16T07:34:20.227Z,93899.97
2022-12-16T07:37:05.398Z,93911.78
2022-12-16T07:39:54.852Z,93905.34
2022-12-16T07:42:41.559Z,93907.16
2022-12-16T07:45:28.260Z,93910.47
2022-12-16T07:48:13.439Z,93907.34
2022-12-16T07:50:58.520Z,93911.59
2022-12-16T07:53:43.924Z,93917.88
2022-12-16T07:56:29.624Z,93930.81
2022-12-16T07:59:15.018Z,93931.94
2022-12-16T08:02:00.296Z,93935.97
2022-12-16T08:04:45.499Z,93943.25
2022-12-16T08:07:30.423Z,93950.94
2022-12-16T08:10:15.479Z,93944.25
2022-12-16T08:13:00.518Z,93945.47
2022-12-16T08:15:45.749Z,93945.03
2022-12-16T08:18:30.549Z,93958.19
2022-12-16T08:21:15.700Z,93953.09
2022-12-16T08:24:00.618Z,93965.56
2022-12-16T08:26:45.629Z,93957.41
2022-12-16T08:29:46.388Z,93961.81
2022-12-16T08:32:33.198Z,93965.38
2022-12-16T08:35:18.958Z,93968.69
2022-12-16T08:38:09.015Z,93978.13
2022-12-16T08:41:01.078Z,93979.16
2022-12-16T08:43:46.387Z,93986.53
2022-12-16T08:46:31.988Z,93994.84
2022-12-16T08:49:17.479Z,93994.59
2022-12-16T08:52:03.139Z,94001.41
2022-12-16T08:54:48.420Z,93997.75
2022-12-16T08:57:33.545Z,94002.31
2022-12-16T09:00:18.880Z,94010.84
2022-12-16T09:03:03.945Z,94010.84
2022-12-16T09:05:49.284Z,94018.13
2022-12-16T09:08:34.482Z,94020.44
2022-12-16T09:11:20.437Z,94028.16
2022-12-16T09:14:05.650Z,94030.16
2022-12-16T09:16:50.613Z,94031.28
2022-12-16T09:19:36.791Z,94040.09
2022-12-16T09:22:21.670Z,94047.88
2022-12-16T09:25:06.588Z,94051.09
2022-12-16T09:27:51.785Z,94055.72
2022-12-16T09:30:37.893Z,94054.41
2022-12-16T09:33:23.114Z,94060.31
2022-12-16T09:36:08.057Z,94064.44
2022-12-16T09:38:53.042Z,94067.78
2022-12-16T09:41:51.869Z,94064.34
2022-12-16T09:45:02.084Z,94065.84
2022-12-16T09:48:05.274Z,94070.78
2022-12-16T09:50:51.481Z,94067.25
2022-12-16T09:53:40.996Z,94075.09
2022-12-16T09:56:35.125Z,94076.16
2022-12-16T09:59:26.169Z,94074.94
2022-12-16T10:02:12.788Z,94079.22
2022-12-16T10:04:58.347Z,94085.13
2022-12-16T10:07:49.322Z,94079.28
2022-12-16T10:10:50.937Z,94084.22
2022-12-16T10:13:38.791Z,94095.06
2022-12-16T10:16:30.674Z,94089.56
2022-12-16T10:19:27.884Z,94092.59
2022-12-16T10:22:42.082Z,94105.41
2022-12-16T10:25:52.977Z,94100.59
2022-12-16T10:29:23.703Z,94105.06
2022-12-16T10:32:08.873Z,94106.44
2022-12-16T10:34:56.098Z,94114.16
2022-12-16T10:37:51.826Z,94113.88
2022-12-16T10:40:41.580Z,94114.16
2022-12-16T10:44:02.731Z,94108.63
2022-12-16T10:46:52.552Z,94120.56
2022-12-16T10:49:40.489Z,94128.88
2022-12-16T10:52:25.998Z,94128.97
2022-12-16T10:55:29.663Z,94126.44
2022-12-16T10:58:25.240Z,94116.94
2022-12-16T11:01:11.568Z,94118.84
2022-12-16T11:03:58.874Z,94122.47
2022-12-16T11:06:47.156Z,94132.13
2022-12-16T11:09:47.482Z,94141.94
2022-12-16T11:12:47.917Z,94141.84
2022-12-16T11:15:50.227Z,94145.78
2022-12-16T11:18:39.099Z,94141.13
2022-12-16T11:21:36.536Z,94143.03
2022-12-16T11:24:30.989Z,94149.31
2022-12-16T11:27:19.474Z,94143.41
2022-12-16T11:30:19.224Z,94142.44
2022-12-16T11:33:11.565Z,94155.81
2022-12-16T11:36:02.407Z,94146.09
2022-12-16T11:38:57.195Z,94149.13
2022-12-16T11:41:47.292Z,94148.63
2022-12-16T11:44:43.740Z,94149.13
2022-12-16T11:47:39.198Z,94151.22
2022-12-16T11:50:30.026Z,94151.75
2022-12-16T11:53:15.846Z,94151.53
2022-12-16T11:56:06.843Z,94153.56
2022-12-16T11:59:13.039Z,94155.06
2022-12-16T12:02:17.712Z,94153.97
2022-12-16T12:05:03.375Z,94158.34
2022-12-16T12:08:16.938Z,94164.09
2022-12-16T12:11:11.033Z,94157.59
2022-12-16T12:14:19.851Z,94166.91
2022-12-16T12:17:16.114Z,94167.63
2022-12-16T12:20:30.309Z,94167.53
2022-12-16T12:23:22.082Z,94176.84
2022-12-16T12:26:34.624Z,94170.91
2022-12-16T12:29:28.114Z,94172.13
2022-12-16T12:32:29.379Z,94181.44
2022-12-16T12:35:37.982Z,94176.06
2022-12-16T12:39:07.237Z,94190.03
2022-12-16T12:41:55.320Z,94185.38
2022-12-16T12:45:12.990Z,94182.31
2022-12-16T12:48:24.486Z,94187.59
2022-12-16T12:51:23.734Z,94200.66
2022-12-16T12:54:28.759Z,94200.66
2022-12-16T12:57:20.139Z,94202.59
2022-12-16T13:00:17.614Z,94200.88
2022-12-16T13:03:16.598Z,94207.75
2022-12-16T13:06:02.653Z,94200.34
2022-12-16T13:09:09.287Z,94199.34
2022-12-16T13:11:56.236Z,94206.63
2022-12-16T13:14:51.352Z,94208.56
2022-12-16T13:17:40.982Z,94223.44
2022-12-16T13:20:51.487Z,94220.22
2022-12-16T13:23:45.901Z,94232.97
2022-12-16T13:26:35.523Z,94235.59
2022-12-16T13:29:34.394Z,94242.28
2022-12-16T13:32:23.444Z,94238.94
2022-12-16T13:35:24.397Z,94254.72
2022-12-16T13:38:12.641Z,94249.97
2022-12-16T13:41:39.538Z,94261.69
2022-12-16T13:44:27.168Z,94260.03
2022-12-16T13:47:13.854Z,94271.50
2022-12-16T13:50:05.803Z,94274.69
2022-12-16T13:53:15.272Z,94276.28
2022-12-16T13:56:19.081Z,94264.06
2022-12-16T13:59:07.182Z,94274.19
2022-12-16T14:01:56.984Z,94279.09
2022-12-16T14:04:48.273Z,94285.59
2022-12-16T14:07:36.177Z,94288.94
2022-12-16T14:10:22.587Z,94296.09
2022-12-16T14:13:16.156Z,94305.44
2022-12-16T14:16:40.299Z,94308.53
2022-12-16T14:19:47.304Z,94313.28
2022-12-16T14:22:49.076Z,94308.94
2022-12-16T14:25:40.186Z,94327.25
2022-12-16T14:28:46.723Z,94337.03
2022-12-16T14:31:58.235Z,94335.19
2022-12-16T14:34:46.476Z,94345.47
2022-12-16T14:37:39.229Z,94346.88
2022-12-16T14:40:39.457Z,94348.84
2022-12-16T14:43:35.234Z,94364.47
2022-12-16T14:46:20.808Z,94360.69
2022-12-16T14:49:08.069Z,94369.09
2022-12-16T14:52:06.219Z,94368.66
2022-12-16T14:54:55.157Z,94371.53
2022-12-16T14:57:46.581Z,94381.84
2022-12-16T15:00:37.992Z,94377.34
2022-12-16T15:03:45.827Z,94384.09
2022-12-16T15:06:42.162Z,94393.56
2022-12-16T15:09:37.631Z,94398.59
2022-12-16T15:12:23.437Z,94406.47
2022-12-16T15:15:10.775Z,94398.31
2022-12-16T15:18:08.813Z,94406.63
2022-12-16T15:20:59.005Z,94413.38
2022-12-16T15:23:49.413Z,94414.22
2022-12-16T15:26:38.436Z,94422.41
2022-12-16T15:29:34.418Z,94416.94
2022-12-16T15:32:20.043Z,94427.03
2022-12-16T15:35:07.818Z,94432.56
2022-12-16T15:38:04.156Z,94435.94
2022-12-16T15:40:52.561Z,94431.06
2022-12-16T15:43:42.898Z,94436.94
2022-12-16T15:46:54.499Z,94442.88
2022-12-16T15:49:39.691Z,94452.97
2022-12-16T15:52:45.267Z,94455.41
2022-12-16T15:55:47.655Z,94463.25
2022-12-16T15:58:40.500Z,94468.94
2022-12-16T16:01:27.308Z,94472.63
2022-12-16T16:04:14.526Z,94467.47
2022-12-16T16:07:11.492Z,94473.41
2022-12-16T16:09:58.354Z,94482.63
2022-12-16T16:12:43.934Z,94485.97
2022-12-16T16:15:31.982Z,94486.63
2022-12-16T16:18:21.037Z,94481.91
2022-12-16T16:21:06.476Z,94490.47
2022-12-16T16:23:51.429Z,94500.06
2022-12-16T16:26:39.765Z,94499.50
2022-12-16T16:29:25.359Z,94498.22
2022-12-16T16:32:11.594Z,94510.94
2022-12-16T16:34:56.881Z,94502.63
2022-12-16T16:37:42.006Z,94509.63
2022-12-16T16:40:49.258Z,94509.38
2022-12-16T16:43:51.011Z,94514.44
2022-12-16T16:46:38.877Z,94514.66
2022-12-16T16:49:28.255Z,94520.72
2022-12-16T16:52:13.618Z,94526.22
2022-12-16T16:54:58.842Z,94525.91
2022-12-16T16:57:47.014Z,94533.81
2022-12-16T17:00:33.948Z,94540.91
2022-12-16T17:03:19.454Z,94544.97
2022-12-16T17:06:04.818Z,94548.56
2022-12-16T17:08:49.811Z,94548.50
2022-12-16T17:11:38.654Z,94550.84
2022-12-16T17:14:24.537Z,94553.34
2022-12-16T17:17:09.598Z,94560.06
2022-12-16T17:19:54.741Z,94565.75
2022-12-16T17:22:39.971Z,94567.78
2022-12-16T17:25:25.768Z,94565.06
2022-12-16T17:28:10.958Z,94575.91
2022-12-16T17:30:56.043Z,94574.63
2022-12-16T17:33:41.235Z,94576.50
2022-12-16T17:36:32.056Z,94580.81
2022-12-16T17:39:18.400Z,94588.56
2022-12-16T17:42:04.128Z,94604.13
2022-12-16T17:44:49.253Z,94597.97
2022-12-16T17:47:34.546Z,94607.13
2022-12-16T17:50:20.215Z,94606.81
2022-12-16T17:53:05.541Z,94613.31
2022-12-16T17:55:52.463Z,94621.03
2022-12-16T17:58:37.381Z,94618.34
2022-12-16T18:01:24.883Z,94619.28
2022-12-16T18:04:10.349Z,94627.81
2022-12-16T18:06:55.576Z,94626.97
2022-12-16T18:09:40.598Z,94634.56
2022-12-16T18:12:36.067Z,94631.06
2022-12-16T18:15:20.840Z,94636.25
2022-12-16T18:18:09.111Z,94636.84
2022-12-16T18:20:54.371Z,94632.84
2022-12-16T18:23:39.783Z,94642.03
2022-12-16T18:26:27.451Z,94646.69
2022-12-16T18:29:13.651Z,94650.34
2022-12-16T18:31:58.586Z,94660.63
2022-12-16T18:34:44.016Z,94656.47
2022-12-16T18:37:30.547Z,94671.28
2022-12-16T18:40:16.127Z,94666.34
2022-12-16T18:43:04.399Z,94678.13
2022-12-16T18:45:49.232Z,94672.44
2022-12-16T18:48:34.478Z,94682.38
2022-12-16T18:51:20.039Z,94680.41
2022-12-16T18:54:05.397Z,94676.25
2022-12-16T18:56:50.279Z,94686.09
2022-12-16T18:59:35.181Z,94691.56
2022-12-16T19:02:20.484Z,94698.84
2022-12-16T19:05:05.729Z,94700.78
2022-12-16T19:07:50.797Z,94703.84
2022-12-16T19:10:35.975Z,94712.00
2022-12-16T19:13:21.032Z,94711.59
2022-12-16T19:16:15.971Z,94714.69
2022-12-16T19:19:01.938Z,94720.41
2022-12-16T19:21:51.649Z,94709.66
2022-12-16T19:24:37.579Z,94716.41
2022-12-16T19:27:22.819Z,94716.66
2022-12-16T19:30:07.646Z,94719.31
2022-12-16T19:32:54.497Z,94723.31
2022-12-16T19:35:41.732Z,94727.09
2022-12-16T19:38:31.570Z,94729.53
2022-12-16T19:41:16.467Z,94736.19
2022-12-16T19:47:06.788Z,94751.59
2022-12-16T19:49:51.957Z,94748.47
2022-12-16T19:52:37.158Z,94749.38
2022-12-16T19:55:22.579Z,94749.94
2022-12-16T19:58:07.780Z,94748.34
2022-12-16T20:00:52.855Z,94759.19
2022-12-16T20:03:38.919Z,94759.41
2022-12-16T20:06:26.158Z,94762.75
2022-12-16T20:09:13.306Z,94771.63
2022-12-16T20:11:59.650Z,94781.22
2022-12-16T20:14:44.875Z,94785.91
2022-12-16T20:17:30.348Z,94791.25
2022-12-16T20:20:15.633Z,94801.72
2022-12-16T20:23:00.703Z,94806.25
2022-12-16T20:25:46.251Z,94817.06
2022-12-16T20:28:31.862Z,94817.97
2022-12-16T20:31:21.905Z,94817.63
2022-12-16T20:34:16.451Z,94823.53
2022-12-16T20:37:01.721Z,94819.31
2022-12-16T20:39:56.444Z,94821.47
2022-12-16T20:42:43.065Z,94829.53
2022-12-16T20:45:29.008Z,94834.59
2022-12-16T20:48:13.876Z,94833.72
2022-12-16T20:50:59.160Z,94841.00
2022-12-16T20:53:44.592Z,94838.22
2022-12-16T20:56:29.860Z,94842.41
2022-12-16T20:59:15.457Z,94846.72
2022-12-16T21:05:05.498Z,94857.09
2022-12-16T21:07:50.800Z,94854.06
2022-12-16T21:10:36.916Z,94849.03
2022-12-16T21:13:31.814Z,94854.78
2022-12-16T21:16:19.002Z,94860.53
2022-12-16T21:19:04.779Z,94869.72
2022-12-16T21:21:49.943Z,94872.91
2022-12-16T21:24:35.761Z,94873.66
2022-12-16T21:27:21.554Z,94884.00
2022-12-16T21:30:06.962Z,94889.34
2022-12-16T21:32:52.367Z,94889.47
2022-12-16T21:35:39.034Z,94888.66
2022-12-16T21:38:30.799Z,94893.19
2022-12-16T21:41:16.581Z,94899.25
2022-12-16T21:44:01.651Z,94905.25
2022-12-16T21:46:46.786Z,94905.78
2022-12-16T21:49:31.886Z,94906.75
2022-12-16T21:52:17.163Z,94911.75
2022-12-16T21:55:02.364Z,94916.91
2022-12-16T21:57:47.544Z,94925.41
2022-12-16T22:00:33.334Z,94924.41
2022-12-16T22:03:18.624Z,94932.38
2022-12-16T22:06:03.955Z,94930.97
2022-12-16T22:08:49.329Z,94934.91
2022-12-16T22:11:35.556Z,94937.84
2022-12-16T22:14:21.202Z,94948.63
2022-12-16T22:17:06.703Z,94940.97
2022-12-16T22:19:51.948Z,94944.59
2022-12-16T22:22:37.173Z,94946.03
2022-12-16T22:25:23.453Z,94946.78
2022-12-16T22:28:08.702Z,94954.13
2022-12-16T22:30:56.339Z,94960.09
2022-12-16T22:33:41.466Z,94960.66
2022-12-16T22:36:28.775Z,94966.22
2022-12-16T22:39:14.114Z,94974.63
2022-12-16T22:41:59.372Z,94971.84
2022-12-16T22:44:44.597Z,94974.09
2022-12-16T22:47:29.896Z,94977.22
2022-12-16T22:50:15.275Z,94979.66
2022-12-16T22:53:00.544Z,94986.09
2022-12-16T22:55:45.981Z,94986.91
2022-12-16T22:58:31.012Z,94987.75
2022-12-16T23:01:16.461Z,94987.06
2022-12-16T23:04:01.717Z,94989.50
2022-12-16T23:06:46.912Z,94991.22
2022-12-16T23:09:32.139Z,94986.59
2022-12-16T23:12:17.377Z,94988.44
2022-12-16T23:15:02.300Z,94992.91
2022-12-16T23:17:47.222Z,94996.00
2022-12-16T23:20:32.004Z,95004.50
2022-12-16T23:23:17.203Z,95001.66
2022-12-16T23:26:02.371Z,94997.69
2022-12-16T23:28:47.562Z,95002.94
2022-12-16T23:31:32.924Z,95010.09
2022-12-16T23:34:18.287Z,95009.28
2022-12-16T23:37:03.597Z,95014.47
2022-12-16T23:39:48.462Z,95008.41
2022-12-16T23:42:33.752Z,95015.03
2022-12-16T23:45:19.027Z,95014.34
2022-12-16T23:48:04.251Z,95020.25
2022-12-16T23:50:49.361Z,95026.03
2022-12-16T23:53:34.889Z,95025.63
2022-12-16T23:56:20.925Z,95024.94
2022-12-16T23:59:06.075Z,95031.41
